Аэропорт: Ужгород. Ужгород

ICAO: UKLU

METAR:
2019/01/21 16:00
UKLU 211600Z 00000MPS 8000 NSC M06/M11 Q1021 R10/493029 NOSIG
METAR:
2018/08/04 18:39
TAF TAF UKLU 041831Z 0418/0506 CNL